createdAt,value
2019-03-28T00:00:46.825Z,90.19
2019-03-28T00:03:35.222Z,92.78
2019-03-28T00:06:23.909Z,94.96
2019-03-28T00:09:12.062Z,95.71
2019-03-28T00:12:00.896Z,95.16
2019-03-28T00:14:49.930Z,93.14
2019-03-28T00:17:38.211Z,94.84
2019-03-28T00:20:27.089Z,94.47
2019-03-28T00:23:47.035Z,94.77
2019-03-28T00:26:35.446Z,93.86
2019-03-28T00:29:24.201Z,96.79
2019-03-28T00:32:12.751Z,94.24
2019-03-28T00:35:01.932Z,94.50
2019-03-28T00:37:50.896Z,94.05
2019-03-28T00:40:39.419Z,94.42
2019-03-28T00:43:28.185Z,93.29
2019-03-28T00:46:17.098Z,89.91
2019-03-28T00:49:08.861Z,92.27
2019-03-28T00:51:57.441Z,93.70
2019-03-28T00:54:46.337Z,99.05
2019-03-28T00:57:34.891Z,100.00
2019-03-28T01:00:24.340Z,100.00
2019-03-28T01:03:12.986Z,100.00
2019-03-28T01:06:03.298Z,100.00
2019-03-28T01:08:52.226Z,100.00
2019-03-28T01:11:41.319Z,99.40
2019-03-28T01:14:29.439Z,97.11
2019-03-28T01:17:17.805Z,96.01
2019-03-28T01:20:07.126Z,95.20
2019-03-28T01:22:56.207Z,95.98
2019-03-28T01:25:45.039Z,96.93
2019-03-28T01:28:33.842Z,97.31
2019-03-28T01:31:22.714Z,99.26
2019-03-28T01:34:11.148Z,99.03
2019-03-28T01:36:59.585Z,96.30
2019-03-28T01:39:48.603Z,96.32
2019-03-28T01:42:37.008Z,95.41
2019-03-28T01:45:25.476Z,96.49
2019-03-28T01:48:14.662Z,99.86
2019-03-28T01:51:03.420Z,100.00
2019-03-28T01:53:52.295Z,100.00
2019-03-28T01:56:40.706Z,100.00
2019-03-28T01:59:29.231Z,100.00
2019-03-28T02:02:17.586Z,100.00
2019-03-28T02:05:06.518Z,100.00
2019-03-28T02:07:55.359Z,100.00
2019-03-28T02:10:43.866Z,100.00
2019-03-28T02:13:32.315Z,100.00
2019-03-28T02:16:21.430Z,100.00
2019-03-28T02:19:09.881Z,100.00
2019-03-28T02:21:58.103Z,98.15
2019-03-28T02:24:46.986Z,95.23
2019-03-28T02:27:35.047Z,95.66
2019-03-28T02:30:32.395Z,94.78
2019-03-28T02:33:21.317Z,93.61
2019-03-28T02:36:09.761Z,93.04
2019-03-28T02:38:58.663Z,93.47
2019-03-28T02:41:47.887Z,93.74
2019-03-28T02:44:37.504Z,96.05
2019-03-28T02:47:29.104Z,99.12
2019-03-28T02:50:17.675Z,99.97
2019-03-28T02:53:06.195Z,99.35
2019-03-28T02:55:55.124Z,100.00
2019-03-28T02:58:44.149Z,100.00
2019-03-28T03:01:32.561Z,100.00
2019-03-28T03:04:21.355Z,100.00
2019-03-28T03:07:11.324Z,100.00
2019-03-28T03:09:59.769Z,100.00
2019-03-28T03:12:48.100Z,100.00
2019-03-28T03:15:36.403Z,100.00
2019-03-28T03:18:24.738Z,99.26
2019-03-28T03:21:13.843Z,98.56
2019-03-28T03:24:03.257Z,98.83
2019-03-28T03:26:51.835Z,98.02
2019-03-28T03:29:40.028Z,97.91
2019-03-28T03:32:28.404Z,98.60
2019-03-28T03:35:17.494Z,99.12
2019-03-28T03:38:06.398Z,100.00
2019-03-28T03:40:55.097Z,100.00
2019-03-28T03:43:43.198Z,99.57
2019-03-28T03:46:32.062Z,98.18
2019-03-28T03:49:20.778Z,97.37
2019-03-28T03:52:09.352Z,98.34
2019-03-28T03:54:57.766Z,99.75
2019-03-28T03:57:47.455Z,100.00
2019-03-28T04:00:37.263Z,99.59
2019-03-28T04:03:25.410Z,98.82
2019-03-28T04:06:13.940Z,99.52
2019-03-28T04:09:02.266Z,99.42
2019-03-28T04:11:50.744Z,100.00
2019-03-28T04:14:38.911Z,100.00
2019-03-28T04:17:27.425Z,98.45
2019-03-28T04:20:15.892Z,98.66
2019-03-28T04:23:04.901Z,99.01
2019-03-28T04:25:53.015Z,98.46
2019-03-28T04:28:41.667Z,99.73
2019-03-28T04:31:30.159Z,98.33
2019-03-28T04:34:18.654Z,97.38
2019-03-28T04:37:07.350Z,98.25
2019-03-28T04:39:55.755Z,97.88
2019-03-28T04:42:46.020Z,97.46
2019-03-28T04:45:34.719Z,98.75
2019-03-28T04:48:23.232Z,99.25
2019-03-28T04:51:12.114Z,100.00
2019-03-28T04:54:00.579Z,97.54
2019-03-28T04:56:49.030Z,97.03
2019-03-28T04:59:37.220Z,99.04
2019-03-28T05:02:25.708Z,100.00
2019-03-28T05:05:14.216Z,100.00
2019-03-28T05:08:03.013Z,100.00
2019-03-28T05:10:51.765Z,100.00
2019-03-28T05:13:43.047Z,100.00
2019-03-28T05:16:31.960Z,100.00
2019-03-28T05:19:21.190Z,100.00
2019-03-28T05:22:10.029Z,98.40
2019-03-28T05:24:58.918Z,95.63
2019-03-28T05:27:48.303Z,93.73
2019-03-28T05:30:37.434Z,91.67
2019-03-28T05:33:26.260Z,91.09
2019-03-28T05:36:14.901Z,89.06
2019-03-28T05:39:04.540Z,88.10
2019-03-28T05:41:52.923Z,88.71
2019-03-28T05:44:40.774Z,86.60
2019-03-28T05:47:29.695Z,86.65
2019-03-28T05:50:18.456Z,85.80
2019-03-28T05:53:06.610Z,88.05
2019-03-28T05:55:56.798Z,86.53
2019-03-28T05:58:45.533Z,87.07
2019-03-28T06:01:33.746Z,86.51
2019-03-28T06:04:22.397Z,85.87
2019-03-28T06:07:10.372Z,85.57
2019-03-28T06:09:59.554Z,84.40
2019-03-28T06:12:48.051Z,83.36
2019-03-28T06:15:40.808Z,84.03
2019-03-28T06:18:28.078Z,81.99
2019-03-28T06:21:16.651Z,80.93
2019-03-28T06:24:05.301Z,83.24
2019-03-28T06:26:53.990Z,84.22
2019-03-28T06:29:42.782Z,83.33
2019-03-28T06:32:42.187Z,83.06
2019-03-28T06:35:22.013Z,81.51
2019-03-28T06:38:10.952Z,81.28
2019-03-28T06:40:59.878Z,78.98
2019-03-28T06:43:48.320Z,76.08
2019-03-28T06:46:36.722Z,77.59
2019-03-28T06:49:25.718Z,77.75
2019-03-28T06:52:13.830Z,79.03
2019-03-28T06:55:02.354Z,80.71
2019-03-28T06:57:50.429Z,80.21
2019-03-28T07:00:38.419Z,80.62
2019-03-28T07:03:26.834Z,81.97
2019-03-28T07:06:15.575Z,80.62
2019-03-28T07:09:05.311Z,79.16
2019-03-28T07:11:54.232Z,78.59
2019-03-28T07:14:42.757Z,77.19
2019-03-28T07:17:32.615Z,74.78
2019-03-28T07:20:21.431Z,77.53
2019-03-28T07:23:09.867Z,82.93
2019-03-28T07:25:58.770Z,85.26
2019-03-28T07:28:47.107Z,86.73
2019-03-28T07:31:36.484Z,86.25
2019-03-28T07:34:24.517Z,85.24
2019-03-28T07:37:13.254Z,85.52
2019-03-28T07:40:01.551Z,83.81
2019-03-28T07:42:50.701Z,80.63
2019-03-28T07:45:39.483Z,79.49
2019-03-28T07:48:27.927Z,79.39
2019-03-28T07:51:16.482Z,78.16
2019-03-28T07:54:05.000Z,73.97
2019-03-28T07:56:53.242Z,73.04
2019-03-28T07:59:44.122Z,71.55
2019-03-28T08:02:32.114Z,68.33
2019-03-28T08:05:20.285Z,66.77
2019-03-28T08:08:08.599Z,66.11
2019-03-28T08:10:56.879Z,65.95
2019-03-28T08:13:45.931Z,65.21
2019-03-28T08:16:35.087Z,64.95
2019-03-28T08:19:23.159Z,66.64
2019-03-28T08:22:11.610Z,66.35
2019-03-28T08:24:59.835Z,63.63
2019-03-28T08:27:47.926Z,61.99
2019-03-28T08:30:37.289Z,62.03
2019-03-28T08:33:26.546Z,63.05
2019-03-28T08:36:16.014Z,60.95
2019-03-28T08:39:05.971Z,59.90
2019-03-28T08:41:55.447Z,59.49
2019-03-28T08:44:43.832Z,59.08
2019-03-28T08:47:32.291Z,58.81
2019-03-28T08:50:20.800Z,60.11
2019-03-28T08:53:08.938Z,63.12
2019-03-28T08:55:57.342Z,59.91
2019-03-28T08:58:45.973Z,59.11
2019-03-28T09:01:37.469Z,58.49
2019-03-28T09:04:25.959Z,58.22
2019-03-28T09:07:17.428Z,56.74
2019-03-28T09:10:06.700Z,55.93
2019-03-28T09:12:55.169Z,56.06
2019-03-28T09:15:44.293Z,55.35
2019-03-28T09:18:33.453Z,56.36
2019-03-28T09:21:23.183Z,55.72
2019-03-28T09:24:11.716Z,53.61
2019-03-28T09:27:00.328Z,56.19
2019-03-28T09:29:49.512Z,54.29
2019-03-28T09:32:37.927Z,52.24
2019-03-28T09:35:30.447Z,50.92
2019-03-28T09:38:18.282Z,48.96
2019-03-28T09:41:06.697Z,51.55
2019-03-28T09:43:56.045Z,52.91
2019-03-28T09:46:45.669Z,48.68
2019-03-28T09:49:34.408Z,49.83
2019-03-28T09:52:22.882Z,50.74
2019-03-28T09:55:11.647Z,48.06
2019-03-28T09:57:59.783Z,48.04
2019-03-28T10:01:01.647Z,47.71
2019-03-28T10:03:37.861Z,45.56
2019-03-28T10:06:26.335Z,46.91
2019-03-28T10:09:15.114Z,46.69
2019-03-28T10:12:04.211Z,47.73
2019-03-28T10:14:52.579Z,48.97
2019-03-28T10:17:42.426Z,47.77
2019-03-28T10:20:30.736Z,46.82
2019-03-28T10:23:19.166Z,45.13
2019-03-28T10:26:08.158Z,48.50
2019-03-28T10:28:57.179Z,48.17
2019-03-28T10:31:45.319Z,46.97
2019-03-28T10:34:33.727Z,46.50
2019-03-28T10:37:22.239Z,44.57
2019-03-28T10:40:10.334Z,43.84
2019-03-28T10:42:58.963Z,42.44
2019-03-28T10:45:47.993Z,43.63
2019-03-28T10:48:36.773Z,44.48
2019-03-28T10:51:25.285Z,40.46
2019-03-28T10:54:20.041Z,40.89
2019-03-28T10:57:13.575Z,39.71
2019-03-28T10:59:53.979Z,41.63
2019-03-28T11:02:42.403Z,41.11
2019-03-28T11:05:30.928Z,43.42
2019-03-28T11:08:19.655Z,42.87
2019-03-28T11:11:08.368Z,42.64
2019-03-28T11:13:56.815Z,41.95
2019-03-28T11:16:48.095Z,42.53
2019-03-28T11:19:35.149Z,41.93
2019-03-28T11:22:24.318Z,43.80
2019-03-28T11:25:13.217Z,42.90
2019-03-28T11:28:01.740Z,42.44
2019-03-28T11:30:50.296Z,42.88
2019-03-28T11:33:38.811Z,43.19
2019-03-28T11:36:27.018Z,42.03
2019-03-28T11:39:15.692Z,43.05
2019-03-28T11:42:04.189Z,43.40
2019-03-28T11:44:52.725Z,43.60
2019-03-28T11:47:41.491Z,42.18
2019-03-28T11:50:30.035Z,43.31
2019-03-28T11:53:18.932Z,45.63
2019-03-28T11:56:08.007Z,43.44
2019-03-28T11:58:56.825Z,43.91
2019-03-28T12:01:45.062Z,43.61
2019-03-28T12:04:33.518Z,43.09
2019-03-28T12:07:22.754Z,40.63
2019-03-28T12:10:11.688Z,42.11
2019-03-28T12:13:00.278Z,40.31
2019-03-28T12:15:48.740Z,41.14
2019-03-28T12:18:36.816Z,38.90
2019-03-28T12:21:25.679Z,41.33
2019-03-28T12:24:14.011Z,40.36
2019-03-28T12:27:04.106Z,39.04
2019-03-28T12:29:53.333Z,38.59
2019-03-28T12:32:42.164Z,37.05
2019-03-28T12:35:30.495Z,38.12
2019-03-28T12:38:19.263Z,39.65
2019-03-28T12:41:07.571Z,38.75
2019-03-28T12:43:56.351Z,39.91
2019-03-28T12:46:44.845Z,40.61
2019-03-28T12:49:33.774Z,41.73
2019-03-28T12:52:22.592Z,41.79
2019-03-28T12:55:10.735Z,39.99
2019-03-28T12:57:59.537Z,39.66
2019-03-28T13:00:48.345Z,41.05
2019-03-28T13:03:45.520Z,38.28
2019-03-28T13:06:28.367Z,38.24
2019-03-28T13:09:17.598Z,39.11
2019-03-28T13:12:02.490Z,37.18
2019-03-28T13:14:33.372Z,36.84
2019-03-28T13:17:03.478Z,37.21
2019-03-28T13:19:33.994Z,38.15
2019-03-28T13:22:04.120Z,37.28
2019-03-28T13:24:35.037Z,36.63
2019-03-28T13:27:11.327Z,36.82
2019-03-28T13:29:41.529Z,35.91
2019-03-28T13:32:11.614Z,34.75
2019-03-28T13:34:42.778Z,34.75
2019-03-28T13:37:12.955Z,35.60
2019-03-28T13:39:43.495Z,35.56
2019-03-28T13:42:13.595Z,35.89
2019-03-28T13:44:44.102Z,37.03
2019-03-28T13:47:14.277Z,39.84
2019-03-28T13:49:44.375Z,40.02
2019-03-28T13:52:14.477Z,40.51
2019-03-28T13:54:44.632Z,37.77
2019-03-28T13:57:14.743Z,35.16
2019-03-28T13:59:44.838Z,39.81
2019-03-28T14:02:15.792Z,38.08
2019-03-28T14:04:45.899Z,35.15
2019-03-28T14:07:17.475Z,33.81
2019-03-28T14:09:47.934Z,32.66
2019-03-28T14:12:18.811Z,31.36
2019-03-28T14:14:49.451Z,32.36
2019-03-28T14:17:20.203Z,35.34
2019-03-28T14:19:50.345Z,37.54
2019-03-28T14:22:20.456Z,37.93
2019-03-28T14:24:50.582Z,38.20
2019-03-28T14:27:20.690Z,35.99
2019-03-28T14:29:50.794Z,32.98
2019-03-28T14:32:21.493Z,32.33
2019-03-28T14:34:51.583Z,34.20
2019-03-28T14:37:22.072Z,30.30
2019-03-28T14:39:52.208Z,29.49
2019-03-28T14:42:22.299Z,28.14
2019-03-28T14:44:52.414Z,27.19
2019-03-28T14:47:22.620Z,26.72
2019-03-28T14:49:52.801Z,30.96
2019-03-28T14:52:22.913Z,33.38
2019-03-28T14:54:53.046Z,35.55
2019-03-28T14:57:23.458Z,36.51
2019-03-28T14:59:54.654Z,37.37
2019-03-28T15:02:24.927Z,36.48
2019-03-28T15:04:55.051Z,37.31
2019-03-28T15:07:25.665Z,38.20
2019-03-28T15:09:56.572Z,37.84
2019-03-28T15:12:27.150Z,39.19
2019-03-28T15:14:57.238Z,39.58
2019-03-28T15:17:27.911Z,41.43
2019-03-28T15:19:57.999Z,40.68
2019-03-28T15:22:28.108Z,40.77
2019-03-28T15:24:58.230Z,41.09
2019-03-28T15:27:28.335Z,39.97
2019-03-28T15:29:59.790Z,41.37
2019-03-28T15:32:30.509Z,41.23
2019-03-28T15:35:01.485Z,42.45
2019-03-28T15:37:31.611Z,41.65
2019-03-28T15:40:01.919Z,41.76
2019-03-28T15:42:32.008Z,41.69
2019-03-28T15:45:02.100Z,41.33
2019-03-28T15:47:33.048Z,40.32
2019-03-28T15:50:03.236Z,41.40
2019-03-28T15:52:36.462Z,39.99
2019-03-28T15:55:07.532Z,42.04
2019-03-28T15:57:40.692Z,41.99
2019-03-28T16:00:10.819Z,41.60
2019-03-28T16:02:41.372Z,44.07
2019-03-28T16:05:11.515Z,44.97
2019-03-28T16:07:42.027Z,46.03
2019-03-28T16:10:14.703Z,44.47
2019-03-28T16:12:44.519Z,45.76
2019-03-28T16:15:15.495Z,45.02
2019-03-28T16:17:45.682Z,45.77
2019-03-28T16:20:16.286Z,46.20
2019-03-28T16:22:47.991Z,45.83
2019-03-28T16:25:18.056Z,45.92
2019-03-28T16:27:48.518Z,46.05
2019-03-28T16:30:23.362Z,47.92
2019-03-28T16:32:53.508Z,47.67
2019-03-28T16:35:23.599Z,47.22
2019-03-28T16:37:54.016Z,47.10
2019-03-28T16:40:24.343Z,45.97
2019-03-28T16:42:54.857Z,49.10
2019-03-28T16:45:24.991Z,49.93
2019-03-28T16:47:55.427Z,51.50
2019-03-28T16:50:25.728Z,51.83
2019-03-28T16:52:56.384Z,52.33
2019-03-28T16:55:27.588Z,54.33
2019-03-28T16:57:58.871Z,54.64
2019-03-28T17:00:39.154Z,56.29
2019-03-28T17:03:09.652Z,56.96
2019-03-28T17:05:40.038Z,57.01
2019-03-28T17:08:10.300Z,55.81
2019-03-28T17:10:44.692Z,55.24
2019-03-28T17:13:16.295Z,55.06
2019-03-28T17:15:46.474Z,55.15
2019-03-28T17:18:18.699Z,57.05
2019-03-28T17:20:48.824Z,58.24
2019-03-28T17:23:19.507Z,58.96
2019-03-28T17:25:49.726Z,58.03
2019-03-28T17:28:19.940Z,58.04
2019-03-28T17:30:51.210Z,58.13
2019-03-28T17:33:21.757Z,61.07
2019-03-28T17:35:51.938Z,59.63
2019-03-28T17:38:22.128Z,60.89
2019-03-28T17:40:52.224Z,57.07
2019-03-28T17:43:23.421Z,59.36
2019-03-28T17:45:53.555Z,58.41
2019-03-28T17:48:23.643Z,59.82
2019-03-28T17:50:53.786Z,58.16
2019-03-28T17:53:24.204Z,59.74
2019-03-28T17:55:55.019Z,61.51
2019-03-28T17:58:25.963Z,63.37
2019-03-28T18:00:56.050Z,67.21
2019-03-28T18:03:31.482Z,62.13
2019-03-28T18:05:58.757Z,62.78
2019-03-28T18:08:29.065Z,69.66
2019-03-28T18:11:00.454Z,60.59
2019-03-28T18:13:31.425Z,62.01
2019-03-28T18:16:02.045Z,64.83
2019-03-28T18:18:32.906Z,60.46
2019-03-28T18:21:03.046Z,62.47
2019-03-28T18:23:33.138Z,63.97
2019-03-28T18:26:03.328Z,62.92
2019-03-28T18:28:33.532Z,62.74
2019-03-28T18:31:05.570Z,63.57
2019-03-28T18:33:36.618Z,65.10
2019-03-28T18:36:07.178Z,63.40
2019-03-28T18:38:37.352Z,64.37
2019-03-28T18:41:07.496Z,62.82
2019-03-28T18:43:37.636Z,63.62
2019-03-28T18:46:07.751Z,66.42
2019-03-28T18:48:38.496Z,63.02
2019-03-28T18:51:09.367Z,64.64
2019-03-28T18:53:39.475Z,66.23
2019-03-28T18:56:09.683Z,66.54
2019-03-28T18:58:39.767Z,66.34
2019-03-28T19:01:10.166Z,65.91
2019-03-28T19:03:40.770Z,63.75
2019-03-28T19:06:14.758Z,63.10
2019-03-28T19:08:46.424Z,60.78
2019-03-28T19:11:17.503Z,61.75
2019-03-28T19:13:47.586Z,63.51
2019-03-28T19:16:17.717Z,65.84
2019-03-28T19:18:48.991Z,66.33
2019-03-28T19:21:19.170Z,66.01
2019-03-28T19:23:50.580Z,65.42
2019-03-28T19:26:21.213Z,65.30
2019-03-28T19:28:51.453Z,66.97
2019-03-28T19:31:22.234Z,67.27
2019-03-28T19:33:52.969Z,68.39
2019-03-28T19:36:23.323Z,68.37
2019-03-28T19:38:53.479Z,67.21
2019-03-28T19:41:24.611Z,68.43
2019-03-28T19:43:57.985Z,69.58
2019-03-28T19:46:28.306Z,69.73
2019-03-28T19:48:58.440Z,68.57
2019-03-28T19:51:29.158Z,69.58
2019-03-28T19:53:59.311Z,69.34
2019-03-28T19:56:29.523Z,68.73
2019-03-28T19:59:00.090Z,71.62
2019-03-28T20:01:30.269Z,68.25
2019-03-28T20:04:00.492Z,67.76
2019-03-28T20:06:30.840Z,69.06
2019-03-28T20:09:01.057Z,67.32
2019-03-28T20:11:31.654Z,67.31
2019-03-28T20:14:02.397Z,67.45
2019-03-28T20:16:33.618Z,68.32
2019-03-28T20:19:04.116Z,68.44
2019-03-28T20:21:34.472Z,69.20
2019-03-28T20:24:04.931Z,68.75
2019-03-28T20:26:35.260Z,66.70
2019-03-28T20:29:06.566Z,68.65
2019-03-28T20:31:39.840Z,70.16
2019-03-28T20:34:09.934Z,72.40
2019-03-28T20:36:43.897Z,71.71
2019-03-28T20:39:12.245Z,72.62
2019-03-28T20:41:42.852Z,74.52
2019-03-28T20:44:13.511Z,73.52
2019-03-28T20:46:43.624Z,72.38
2019-03-28T20:49:13.722Z,71.80
2019-03-28T20:51:46.277Z,72.51
2019-03-28T20:54:16.364Z,73.63
2019-03-28T20:56:47.240Z,74.72
2019-03-28T20:59:35.742Z,74.68
2019-03-28T21:02:24.295Z,75.79
2019-03-28T21:05:14.457Z,74.05
2019-03-28T21:08:04.170Z,75.00
2019-03-28T21:10:52.623Z,75.77
2019-03-28T21:13:41.286Z,76.86
2019-03-28T21:16:33.759Z,76.70
2019-03-28T21:19:21.206Z,77.59
2019-03-28T21:22:09.639Z,77.09
2019-03-28T21:24:58.207Z,78.00
2019-03-28T21:27:47.079Z,77.93
2019-03-28T21:30:46.586Z,78.69
2019-03-28T21:33:29.254Z,79.86
2019-03-28T21:36:29.002Z,79.94
2019-03-28T21:39:09.009Z,80.61
2019-03-28T21:41:57.667Z,80.52
2019-03-28T21:44:46.084Z,80.51
2019-03-28T21:47:34.349Z,80.71
2019-03-28T21:50:22.720Z,81.80
2019-03-28T21:53:11.269Z,80.66
2019-03-28T21:55:59.729Z,80.15
2019-03-28T21:58:48.165Z,79.24
2019-03-28T22:01:36.534Z,80.35
2019-03-28T22:04:25.277Z,80.67
2019-03-28T22:07:14.917Z,80.98
2019-03-28T22:10:04.029Z,81.87
2019-03-28T22:12:52.715Z,81.94
2019-03-28T22:15:41.211Z,82.54
2019-03-28T22:18:29.650Z,81.63
2019-03-28T22:21:18.081Z,82.19
2019-03-28T22:24:06.636Z,82.19
2019-03-28T22:26:55.659Z,83.10
2019-03-28T22:29:44.242Z,82.07
2019-03-28T22:32:36.034Z,83.39
2019-03-28T22:35:25.294Z,82.39
2019-03-28T22:38:14.942Z,82.19
2019-03-28T22:41:03.250Z,83.07
2019-03-28T22:43:52.031Z,82.40
2019-03-28T22:46:40.606Z,83.23
2019-03-28T22:49:29.155Z,84.10
2019-03-28T22:52:17.544Z,83.99
2019-03-28T22:55:06.640Z,83.27
2019-03-28T22:57:56.367Z,83.88
2019-03-28T23:00:46.435Z,83.27
2019-03-28T23:03:35.147Z,84.47
2019-03-28T23:06:24.237Z,85.50
2019-03-28T23:09:13.110Z,85.10
2019-03-28T23:12:01.306Z,84.54
2019-03-28T23:14:50.127Z,83.86
2019-03-28T23:17:39.108Z,83.67
2019-03-28T23:20:29.721Z,83.56
2019-03-28T23:23:18.634Z,84.55
2019-03-28T23:26:09.021Z,84.36
2019-03-28T23:28:57.129Z,84.10
2019-03-28T23:31:46.693Z,85.09
2019-03-28T23:34:36.088Z,86.25
2019-03-28T23:37:26.814Z,85.53
2019-03-28T23:40:16.289Z,86.44
2019-03-28T23:43:04.691Z,85.25
2019-03-28T23:45:53.637Z,85.49
2019-03-28T23:48:42.889Z,85.68
2019-03-28T23:51:31.277Z,84.72
2019-03-28T23:54:19.766Z,83.97
2019-03-28T23:57:08.706Z,86.69
2019-03-28T23:59:57.113Z,86.20
